Time;durP1;ratioP1;P1;durP2;ratioP2;P2;SDS_P1;SDS_P2;PMS_P1;PMS_P2;Temp;Humidity;BMP_temperature;BMP_pressure;BME280_temperature;BME280_humidity;BME280_pressure;Samples;Min_cycle;Max_cycle;Signal;HPM_P1;HPM_P2
2022/11/17 00:01:20;;;;;;;6.97;4.57;;;6.40;99.90;;;;;;5091387;28;20414;-54
2022/11/17 00:03:50;;;;;;;7.63;5.23;;;6.40;99.90;;;;;;5099599;28;20430;-53
2022/11/17 00:06:19;;;;;;;7.50;5.10;;;6.40;99.90;;;;;;5100042;28;20451;-56
2022/11/17 00:08:46;;;;;;;7.83;6.20;;;6.40;99.90;;;;;;5099969;28;20450;-60
2022/11/17 00:11:13;;;;;;;9.80;6.50;;;6.30;99.90;;;;;;5099320;28;20462;-49
2022/11/17 00:16:24;;;;;;;9.83;4.40;;;6.30;99.90;;;;;;5098814;28;20482;-54
2022/11/17 00:21:37;;;;;;;9.50;5.53;;;6.20;99.90;;;;;;5086191;28;20453;-57
2022/11/17 00:24:05;;;;;;;8.00;5.37;;;6.20;99.90;;;;;;5097629;28;20458;-55
2022/11/17 00:26:34;;;;;;;7.33;5.10;;;6.10;99.90;;;;;;5098208;28;20438;-52
2022/11/17 00:29:03;;;;;;;11.13;7.10;;;6.10;99.90;;;;;;5097629;28;20438;-58
2022/11/17 00:34:20;;;;;;;7.60;5.40;;;6.20;99.90;;;;;;5097437;28;20507;-56
2022/11/17 00:36:49;;;;;;;7.63;5.20;;;6.20;99.90;;;;;;5097363;28;20463;-60
2022/11/17 00:39:17;;;;;;;8.40;5.87;;;6.20;99.90;;;;;;5097395;28;20492;-55
2022/11/17 00:41:46;;;;;;;10.73;6.00;;;6.20;99.90;;;;;;5097838;28;20434;-58
2022/11/17 00:44:13;;;;;;;8.67;7.57;;;6.20;99.90;;;;;;5095066;28;20429;-59
2022/11/17 00:46:40;;;;;;;8.50;5.27;;;6.20;99.90;;;;;;5087840;28;20449;-58
2022/11/17 00:49:08;;;;;;;7.57;5.43;;;6.10;99.90;;;;;;5084893;28;20447;-58
2022/11/17 00:51:37;;;;;;;7.43;5.47;;;6.10;99.90;;;;;;5097883;28;20426;-51
2022/11/17 00:54:05;;;;;;;9.57;6.00;;;6.00;99.90;;;;;;5097504;28;20501;-57
2022/11/17 00:56:33;;;;;;;8.00;5.97;;;6.10;99.90;;;;;;5097511;28;20434;-58
2022/11/17 00:59:01;;;;;;;9.20;5.10;;;6.10;99.90;;;;;;5097433;28;20442;-56
2022/11/17 01:01:28;;;;;;;18.70;6.30;;;6.10;99.90;;;;;;5096782;28;20473;-58
2022/11/17 01:04:01;;;;;;;11.47;4.90;;;6.10;99.90;;;;;;5097670;28;20419;-53
2022/11/17 01:06:30;;;;;;;10.73;6.43;;;6.10;99.90;;;;;;5086344;28;20946;-55
2022/11/17 01:09:00;;;;;;;8.47;5.13;;;6.00;99.90;;;;;;5096855;28;20472;-55
2022/11/17 01:11:30;;;;;;;10.40;6.20;;;6.00;99.90;;;;;;5097231;28;20443;-57
2022/11/17 01:13:59;;;;;;;8.20;5.27;;;6.00;99.90;;;;;;5096894;28;20490;-53
2022/11/17 01:16:27;;;;;;;7.83;5.33;;;5.90;99.90;;;;;;5084209;28;20446;-55
2022/11/17 01:18:55;;;;;;;6.87;4.90;;;6.00;99.90;;;;;;5093571;28;20472;-57
2022/11/17 01:21:25;;;;;;;7.53;5.27;;;6.00;99.90;;;;;;5087088;28;20468;-61
2022/11/17 01:23:54;;;;;;;7.50;5.10;;;6.00;99.90;;;;;;5096517;28;20456;-52
2022/11/17 01:26:25;;;;;;;8.97;5.80;;;6.00;99.90;;;;;;5096601;28;20438;-57
2022/11/17 01:28:54;;;;;;;6.87;5.37;;;5.90;99.90;;;;;;5096641;28;20823;-49
2022/11/17 01:31:23;;;;;;;8.37;5.10;;;5.90;99.90;;;;;;5096302;28;20439;-52
2022/11/17 01:33:53;;;;;;;8.60;5.40;;;5.90;99.90;;;;;;5096251;28;20470;-53
2022/11/17 01:36:22;;;;;;;9.37;6.10;;;5.90;99.90;;;;;;5096379;28;20472;-52
2022/11/17 01:38:51;;;;;;;7.33;4.63;;;5.90;99.90;;;;;;5096369;28;20496;-56
2022/11/17 01:41:20;;;;;;;6.50;3.30;;;6.00;99.90;;;;;;5096876;28;20472;-56
2022/11/17 01:43:50;;;;;;;7.13;5.20;;;5.90;99.90;;;;;;5096344;28;20434;-59
2022/11/17 01:46:29;;;;;;;7.20;5.07;;;6.00;99.90;;;;;;5096905;28;20465;-55
2022/11/17 01:49:06;;;;;;;5.87;5.17;;;6.00;99.90;;;;;;5086766;28;20441;-55
2022/11/17 01:51:36;;;;;;;6.23;5.03;;;6.00;99.90;;;;;;5096431;28;20526;-55
2022/11/17 01:54:04;;;;;;;5.97;5.03;;;5.90;99.90;;;;;;5096136;28;20473;-54
2022/11/17 01:56:37;;;;;;;7.50;4.90;;;5.90;99.90;;;;;;5095291;28;20442;-58
2022/11/17 01:59:10;;;;;;;14.50;7.07;;;5.90;99.90;;;;;;5088416;28;20462;-56
2022/11/17 02:01:54;;;;;;;11.10;8.10;;;5.90;99.90;;;;;;5086963;28;20500;-59
2022/11/17 02:04:21;;;;;;;7.60;5.27;;;5.90;99.90;;;;;;5094844;28;20492;-57
2022/11/17 02:06:54;;;;;;;8.50;5.77;;;5.90;99.90;;;;;;5096936;28;20426;-58
2022/11/17 02:09:22;;;;;;;5.03;3.80;;;5.90;99.90;;;;;;5096703;28;20423;-52
2022/11/17 02:11:49;;;;;;;8.10;5.23;;;5.90;99.90;;;;;;5096913;28;20439;-59
2022/11/17 02:14:17;;;;;;;6.13;3.30;;;5.90;99.90;;;;;;5096225;28;20473;-58
2022/11/17 02:16:44;;;;;;;5.53;3.90;;;5.90;99.90;;;;;;5096746;28;20453;-58
2022/11/17 02:19:16;;;;;;;8.90;4.93;;;5.90;99.90;;;;;;5097254;28;20430;-57
2022/11/17 02:22:15;;;;;;;6.30;4.53;;;5.80;99.90;;;;;;5096975;28;20422;-51
2022/11/17 02:25:18;;;;;;;6.57;5.47;;;5.80;99.90;;;;;;5097588;28;20423;-60
2022/11/17 02:28:06;;;;;;;6.17;4.97;;;5.80;99.90;;;;;;5097306;28;20422;-59
2022/11/17 02:30:40;;;;;;;8.00;5.83;;;5.80;99.90;;;;;;5096668;28;20497;-57
2022/11/17 02:33:13;;;;;;;6.53;5.03;;;5.80;99.90;;;;;;5096850;28;20410;-56
2022/11/17 02:35:46;;;;;;;9.03;4.53;;;5.80;99.90;;;;;;5096578;28;20480;-58
2022/11/17 02:38:27;;;;;;;9.83;4.80;;;5.70;99.90;;;;;;5096389;28;20427;-59
2022/11/17 02:41:01;;;;;;;7.43;5.23;;;5.80;99.90;;;;;;5096521;28;20437;-53
2022/11/17 02:46:23;;;;;;;8.97;5.63;;;5.80;99.90;;;;;;5090544;28;20410;-58
2022/11/17 02:48:56;;;;;;;20.40;12.00;;;5.80;99.90;;;;;;5091280;28;20466;-56
2022/11/17 02:51:26;;;;;;;19.90;8.83;;;5.80;99.90;;;;;;5095705;28;20445;-53
2022/11/17 02:53:54;;;;;;;8.23;5.20;;;5.80;99.90;;;;;;5095165;28;20493;-57
2022/11/17 02:56:21;;;;;;;7.70;4.50;;;5.80;99.90;;;;;;5095662;28;20449;-55
2022/11/17 02:58:52;;;;;;;5.80;4.90;;;5.80;99.90;;;;;;5095540;28;20442;-57
2022/11/17 03:01:46;;;;;;;7.97;4.70;;;5.80;99.90;;;;;;5095462;28;20469;-58
2022/11/17 03:04:30;;;;;;;9.03;4.77;;;5.80;99.90;;;;;;5095299;28;20423;-53
2022/11/17 03:07:06;;;;;;;6.10;5.20;;;5.80;99.90;;;;;;5093494;28;20481;-58
2022/11/17 03:09:45;;;;;;;8.13;5.10;;;5.80;99.90;;;;;;5086141;28;20804;-58
2022/11/17 03:12:20;;;;;;;6.60;4.30;;;5.80;99.90;;;;;;5084113;28;20490;-56
2022/11/17 03:14:56;;;;;;;6.67;5.37;;;5.80;99.90;;;;;;5099279;28;20491;-55
2022/11/17 03:17:37;;;;;;;6.73;5.40;;;5.80;99.90;;;;;;5098251;28;20442;-60
2022/11/17 03:20:13;;;;;;;8.40;5.20;;;5.80;99.90;;;;;;5090625;28;20470;-59
2022/11/17 03:22:47;;;;;;;5.57;3.43;;;5.80;99.90;;;;;;5099245;28;20456;-57
2022/11/17 03:25:17;;;;;;;9.83;5.10;;;5.80;99.90;;;;;;5098770;28;20509;-54
2022/11/17 03:27:47;;;;;;;7.47;5.43;;;5.80;99.90;;;;;;5099428;28;20427;-59
2022/11/17 03:30:17;;;;;;;7.30;5.27;;;5.70;99.90;;;;;;5099404;28;20446;-56
2022/11/17 03:32:49;;;;;;;7.90;4.73;;;5.80;99.90;;;;;;5092143;28;20553;-59
2022/11/17 03:35:20;;;;;;;8.03;5.27;;;5.70;99.90;;;;;;5094925;28;20530;-53
2022/11/17 03:37:54;;;;;;;9.83;5.87;;;5.70;99.90;;;;;;5098494;28;20407;-54
2022/11/17 03:40:25;;;;;;;7.17;4.83;;;5.80;99.90;;;;;;5098685;28;20430;-55
2022/11/17 03:43:04;;;;;;;8.40;4.57;;;5.80;99.90;;;;;;5099038;28;20442;-58
2022/11/17 03:45:35;;;;;;;8.37;5.80;;;5.70;99.90;;;;;;5098152;28;20503;-55
2022/11/17 03:48:07;;;;;;;9.30;4.43;;;5.70;99.90;;;;;;5098780;28;20422;-58
2022/11/17 03:50:38;;;;;;;6.57;5.43;;;5.80;99.90;;;;;;5098452;28;20466;-58
2022/11/17 03:53:06;;;;;;;10.50;4.83;;;5.70;99.90;;;;;;5098363;28;20427;-55
2022/11/17 03:55:38;;;;;;;5.60;4.47;;;5.70;99.90;;;;;;5098015;28;20474;-57
2022/11/17 03:58:09;;;;;;;6.63;5.53;;;5.70;99.90;;;;;;5098433;28;20470;-57
2022/11/17 04:00:40;;;;;;;9.63;5.53;;;5.70;99.90;;;;;;5098290;28;20446;-56
2022/11/17 04:03:07;;;;;;;6.43;4.57;;;5.70;99.90;;;;;;5098445;28;20469;-59
2022/11/17 04:05:34;;;;;;;13.30;7.00;;;5.70;99.90;;;;;;5098822;28;20426;-59
2022/11/17 04:08:01;;;;;;;9.40;5.77;;;5.70;99.90;;;;;;5098137;28;20450;-51
2022/11/17 04:10:28;;;;;;;8.13;5.07;;;5.70;99.90;;;;;;5092006;28;20463;-59
2022/11/17 04:15:57;;;;;;;13.50;6.67;;;5.80;99.90;;;;;;5097887;28;20489;-57
2022/11/17 04:18:25;;;;;;;5.23;4.30;;;5.80;99.90;;;;;;5086419;28;20438;-56
2022/11/17 04:20:53;;;;;;;9.93;6.20;;;5.80;99.90;;;;;;5098186;28;20449;-57
2022/11/17 04:23:20;;;;;;;7.20;5.67;;;5.80;99.90;;;;;;5097669;28;20477;-56
2022/11/17 04:28:38;;;;;;;8.10;5.13;;;5.80;99.90;;;;;;5098020;28;20414;-58
2022/11/17 04:31:12;;;;;;;9.50;4.40;;;5.80;99.90;;;;;;5098226;28;20442;-56
2022/11/17 04:33:41;;;;;;;6.13;4.63;;;5.80;99.90;;;;;;5098657;28;20508;-55
2022/11/17 04:36:09;;;;;;;6.20;4.50;;;5.80;99.90;;;;;;5086260;28;20476;-56
2022/11/17 04:38:36;;;;;;;7.87;6.07;;;5.80;99.90;;;;;;5089309;28;20764;-63
2022/11/17 04:43:53;;;;;;;10.63;5.53;;;5.70;99.90;;;;;;5098743;28;20421;-60
2022/11/17 04:46:23;;;;;;;10.33;6.60;;;5.80;99.90;;;;;;5099176;28;20418;-55
2022/11/17 04:48:52;;;;;;;8.93;5.70;;;5.80;99.90;;;;;;5098216;28;20461;-56
2022/11/17 04:51:22;;;;;;;10.77;6.57;;;5.80;99.90;;;;;;5098083;28;20501;-57
2022/11/17 04:53:49;;;;;;;16.80;7.13;;;5.80;99.90;;;;;;5089256;28;20441;-61
2022/11/17 04:56:22;;;;;;;9.33;5.87;;;5.70;99.90;;;;;;5098493;28;20427;-52
2022/11/17 04:58:50;;;;;;;7.27;5.77;;;5.70;99.90;;;;;;5098277;28;20430;-58
2022/11/17 05:01:17;;;;;;;9.40;6.93;;;5.70;99.90;;;;;;5097809;28;20484;-58
2022/11/17 05:03:47;;;;;;;7.83;5.23;;;5.70;99.90;;;;;;5097397;28;20442;-58
2022/11/17 05:06:16;;;;;;;10.73;7.07;;;5.70;99.90;;;;;;5097861;28;20484;-59
2022/11/17 05:08:44;;;;;;;7.87;5.13;;;5.80;99.90;;;;;;5098413;28;20419;-57
2022/11/17 05:14:05;;;;;;;8.57;5.60;;;5.70;99.90;;;;;;5097949;28;20449;-57
2022/11/17 05:19:32;;;;;;;8.53;5.53;;;5.70;99.90;;;;;;5098441;28;20460;-52
2022/11/17 05:22:03;;;;;;;6.13;5.47;;;5.80;99.90;;;;;;5086974;28;20452;-56
2022/11/17 05:27:26;;;;;;;9.30;5.43;;;5.80;99.90;;;;;;5033458;28;20453;-50
2022/11/17 05:29:53;;;;;;;8.97;5.37;;;5.80;99.90;;;;;;5016789;28;20481;-53
2022/11/17 05:32:20;;;;;;;10.43;5.83;;;5.90;99.90;;;;;;5020249;28;20459;-59
2022/11/17 05:34:49;;;;;;;7.80;5.43;;;5.90;99.90;;;;;;5038004;28;20472;-61
2022/11/17 05:37:15;;;;;;;6.10;4.50;;;5.90;99.90;;;;;;5036872;28;20464;-56
2022/11/17 05:39:42;;;;;;;10.40;6.10;;;5.90;99.90;;;;;;5038104;28;20442;-60
2022/11/17 05:42:09;;;;;;;7.80;5.87;;;5.90;99.90;;;;;;5037733;28;20433;-57
2022/11/17 05:44:36;;;;;;;11.10;7.20;;;5.90;99.90;;;;;;5035322;28;20445;-60
2022/11/17 05:47:03;;;;;;;10.00;6.03;;;5.90;99.90;;;;;;5035428;28;20444;-58
2022/11/17 05:49:30;;;;;;;10.07;5.00;;;5.90;99.90;;;;;;5034405;28;20531;-64
2022/11/17 05:51:58;;;;;;;11.30;6.53;;;6.00;99.90;;;;;;5035303;28;20492;-56
2022/11/17 05:54:26;;;;;;;8.37;5.37;;;5.90;99.90;;;;;;5049620;28;20484;-61
2022/11/17 05:56:59;;;;;;;8.33;6.47;;;5.90;99.90;;;;;;5034012;28;20493;-61
2022/11/17 05:59:30;;;;;;;7.20;5.37;;;5.90;99.90;;;;;;5033596;28;20465;-55
2022/11/17 06:02:02;;;;;;;10.60;6.87;;;6.00;99.90;;;;;;5034826;28;20481;-52
2022/11/17 06:04:30;;;;;;;9.63;6.70;;;6.00;99.90;;;;;;5034634;28;20465;-60
2022/11/17 06:07:00;;;;;;;18.43;6.13;;;6.00;99.90;;;;;;5035166;28;20445;-61
2022/11/17 06:09:32;;;;;;;7.27;5.97;;;6.00;99.90;;;;;;5033352;28;20511;-61
2022/11/17 06:11:59;;;;;;;8.87;5.60;;;6.00;99.90;;;;;;5033842;28;20479;-59
2022/11/17 06:14:26;;;;;;;9.50;6.43;;;6.00;99.90;;;;;;5033724;28;20487;-53
2022/11/17 06:16:58;;;;;;;6.87;4.90;;;6.00;99.90;;;;;;5033677;28;20441;-53
2022/11/17 06:19:29;;;;;;;11.00;5.47;;;6.00;99.90;;;;;;5033947;28;20448;-60
2022/11/17 06:21:58;;;;;;;8.67;5.93;;;6.00;99.90;;;;;;5034976;28;20445;-55
2022/11/17 06:24:25;;;;;;;10.03;6.10;;;6.00;99.90;;;;;;5034112;28;20472;-57
2022/11/17 06:26:54;;;;;;;8.43;6.10;;;6.00;99.90;;;;;;5034225;28;20468;-57
2022/11/17 06:29:21;;;;;;;9.77;5.80;;;6.00;99.90;;;;;;5034942;28;20453;-46
2022/11/17 06:31:48;;;;;;;8.67;5.10;;;6.10;99.90;;;;;;5034564;28;20473;-53
2022/11/17 06:34:15;;;;;;;12.43;5.23;;;6.10;99.90;;;;;;5034201;28;20465;-54
2022/11/17 06:36:42;;;;;;;8.63;6.23;;;6.10;99.90;;;;;;5034353;28;20472;-45
2022/11/17 06:39:10;;;;;;;8.40;5.97;;;6.20;99.90;;;;;;5034891;28;20735;-56
2022/11/17 06:41:38;;;;;;;8.57;5.40;;;6.20;99.90;;;;;;5035001;28;20553;-51
2022/11/17 06:44:05;;;;;;;9.90;6.63;;;6.20;99.90;;;;;;5035247;28;20497;-54
2022/11/17 06:46:36;;;;;;;11.67;6.93;;;6.20;99.90;;;;;;5034487;28;20469;-50
2022/11/17 06:49:07;;;;;;;13.53;7.27;;;6.20;99.90;;;;;;5038967;28;20524;-57
2022/11/17 06:51:34;;;;;;;6.70;4.30;;;6.20;99.90;;;;;;5039673;28;20491;-54
2022/11/17 06:54:02;;;;;;;9.80;6.50;;;6.20;99.90;;;;;;5039460;28;20444;-47
2022/11/17 06:56:30;;;;;;;7.60;5.30;;;6.20;99.90;;;;;;5034198;28;20519;-59
2022/11/17 06:59:00;;;;;;;6.47;5.07;;;6.20;99.90;;;;;;5038589;28;20463;-53
2022/11/17 07:01:27;;;;;;;9.23;6.37;;;6.20;99.90;;;;;;5039342;28;20480;-63
2022/11/17 07:03:56;;;;;;;11.70;6.53;;;6.20;99.90;;;;;;5039796;28;20465;-60
2022/11/17 07:06:23;;;;;;;8.23;5.40;;;6.20;99.90;;;;;;5039892;28;20445;-55
2022/11/17 07:08:54;;;;;;;9.80;6.20;;;6.20;99.90;;;;;;5039298;28;20460;-55
2022/11/17 07:11:21;;;;;;;8.47;6.50;;;6.20;99.90;;;;;;5039979;28;20441;-50
2022/11/17 07:13:49;;;;;;;8.80;5.87;;;6.20;99.90;;;;;;5028323;28;20480;-62
2022/11/17 07:16:18;;;;;;;8.87;5.60;;;6.20;99.90;;;;;;5036720;28;20519;-65
2022/11/17 07:18:45;;;;;;;9.47;7.10;;;6.20;99.90;;;;;;5026573;28;20531;-61
2022/11/17 07:21:14;;;;;;;9.10;6.30;;;6.20;99.90;;;;;;5038780;28;20452;-56
2022/11/17 07:23:43;;;;;;;8.37;5.97;;;6.20;99.90;;;;;;5037669;28;20464;-54
2022/11/17 07:26:10;;;;;;;12.30;5.40;;;6.30;99.90;;;;;;5037955;28;20449;-60
2022/11/17 07:28:37;;;;;;;11.30;6.27;;;6.30;99.90;;;;;;5024611;28;20491;-43
2022/11/17 07:31:08;;;;;;;10.73;6.27;;;6.30;99.90;;;;;;5026611;28;20961;-52
2022/11/17 07:33:37;;;;;;;7.87;4.73;;;6.30;99.90;;;;;;5035831;28;20440;-50
2022/11/17 07:36:06;;;;;;;7.73;5.47;;;6.30;99.90;;;;;;5037889;28;20477;-49
2022/11/17 07:38:33;;;;;;;11.10;5.47;;;6.30;99.90;;;;;;5038904;28;20445;-50
2022/11/17 07:41:01;;;;;;;10.70;6.40;;;6.30;99.90;;;;;;5037798;28;20500;-53
2022/11/17 07:43:29;;;;;;;8.73;5.27;;;6.30;99.90;;;;;;5038069;28;20469;-49
2022/11/17 07:45:57;;;;;;;10.73;6.13;;;6.40;99.90;;;;;;5038363;28;20463;-50
2022/11/17 07:48:25;;;;;;;6.93;4.83;;;6.40;99.90;;;;;;5027485;28;20448;-48
2022/11/17 07:50:52;;;;;;;9.50;5.13;;;6.40;99.90;;;;;;5035221;28;20878;-51
2022/11/17 07:53:19;;;;;;;8.87;5.20;;;6.50;99.90;;;;;;5029700;28;20745;-50
2022/11/17 07:55:45;;;;;;;7.00;5.00;;;6.50;99.90;;;;;;5032905;28;20508;-49
2022/11/17 07:58:12;;;;;;;7.83;5.40;;;6.50;99.90;;;;;;5036944;28;20445;-50
2022/11/17 08:00:41;;;;;;;8.50;5.50;;;6.50;99.90;;;;;;5024939;28;20425;-46
2022/11/17 08:03:11;;;;;;;12.23;5.73;;;6.60;99.90;;;;;;5026817;28;20449;-51
2022/11/17 08:05:39;;;;;;;6.03;4.37;;;6.60;99.90;;;;;;5035571;28;20453;-47
2022/11/17 08:08:08;;;;;;;6.63;4.47;;;6.50;99.90;;;;;;5037593;28;20448;-46
2022/11/17 08:10:37;;;;;;;10.50;5.50;;;6.60;99.90;;;;;;5026942;28;20433;-55
2022/11/17 08:13:07;;;;;;;5.87;4.87;;;6.60;99.90;;;;;;5036681;28;20445;-49
2022/11/17 08:15:34;;;;;;;10.10;5.90;;;6.70;99.90;;;;;;5037607;28;20491;-51
2022/11/17 08:18:02;;;;;;;5.87;4.20;;;6.60;99.90;;;;;;5037503;28;20504;-51
2022/11/17 08:20:30;;;;;;;7.00;4.40;;;6.60;99.90;;;;;;5026837;28;20487;-50
2022/11/17 08:22:58;;;;;;;6.73;4.20;;;6.60;99.90;;;;;;5030199;28;20445;-49
2022/11/17 08:25:27;;;;;;;10.33;5.33;;;6.70;99.90;;;;;;5033990;28;20476;-49
2022/11/17 08:27:57;;;;;;;9.40;5.20;;;6.70;99.90;;;;;;5037198;28;20444;-50
2022/11/17 08:30:25;;;;;;;6.20;3.83;;;6.70;99.90;;;;;;5030951;28;20460;-51
2022/11/17 08:32:55;;;;;;;12.13;5.07;;;6.70;99.90;;;;;;5029664;28;20476;-50
2022/11/17 08:35:24;;;;;;;11.67;5.57;;;6.70;99.90;;;;;;5036860;28;20961;-49
2022/11/17 08:37:51;;;;;;;7.20;4.60;;;6.70;99.90;;;;;;5037297;28;20460;-48
2022/11/17 08:40:20;;;;;;;6.33;4.33;;;6.80;99.90;;;;;;5037284;28;20421;-48
2022/11/17 08:42:47;;;;;;;7.80;5.20;;;6.70;99.90;;;;;;5036760;28;20495;-52
2022/11/17 08:45:14;;;;;;;9.70;5.97;;;6.70;99.90;;;;;;5036580;28;20448;-48
2022/11/17 08:47:41;;;;;;;8.10;5.70;;;6.70;99.90;;;;;;5030657;28;20556;-50
2022/11/17 08:50:09;;;;;;;7.97;5.83;;;6.70;99.90;;;;;;5025383;28;20478;-47
2022/11/17 08:52:36;;;;;;;8.10;5.13;;;6.70;99.90;;;;;;5036515;28;20462;-51
2022/11/17 08:55:04;;;;;;;6.90;5.10;;;6.70;99.90;;;;;;5036241;28;20496;-46
2022/11/17 08:57:33;;;;;;;6.20;4.97;;;6.70;99.90;;;;;;5032137;28;20918;-51
2022/11/17 09:00:00;;;;;;;7.93;5.67;;;6.80;99.90;;;;;;5028727;28;20481;-45
2022/11/17 09:02:27;;;;;;;8.30;5.80;;;6.80;99.90;;;;;;5036588;28;20442;-46
2022/11/17 09:04:54;;;;;;;11.47;5.70;;;6.80;99.90;;;;;;5036882;28;20476;-50
2022/11/17 09:07:21;;;;;;;10.43;5.50;;;6.80;99.90;;;;;;5036502;28;20468;-49
2022/11/17 09:09:48;;;;;;;12.03;5.00;;;6.80;99.90;;;;;;5036785;28;20449;-49
2022/11/17 09:12:17;;;;;;;9.50;5.07;;;6.80;99.90;;;;;;5035831;28;20465;-48
2022/11/17 09:14:45;;;;;;;15.10;7.43;;;6.80;99.90;;;;;;5035332;28;20454;-43
2022/11/17 09:17:12;;;;;;;8.57;5.93;;;6.80;99.90;;;;;;5031759;28;20453;-47
2022/11/17 09:19:39;;;;;;;14.17;6.93;;;6.80;99.90;;;;;;5034869;28;20456;-49
2022/11/17 09:22:06;;;;;;;7.90;6.60;;;6.80;99.90;;;;;;5035659;28;20460;-47
2022/11/17 09:24:33;;;;;;;9.00;7.23;;;6.90;99.90;;;;;;5036288;28;20461;-48
2022/11/17 09:27:01;;;;;;;9.43;5.93;;;6.90;99.90;;;;;;5035694;28;20480;-50
2022/11/17 09:29:29;;;;;;;12.50;7.53;;;6.90;99.90;;;;;;5032160;28;20537;-49
2022/11/17 09:31:57;;;;;;;12.00;7.27;;;6.90;99.90;;;;;;5030173;28;20492;-51
2022/11/17 09:34:24;;;;;;;8.03;5.67;;;6.90;99.90;;;;;;5036012;28;20464;-48
2022/11/17 09:36:51;;;;;;;7.30;5.17;;;6.90;99.90;;;;;;5035200;28;20495;-49
2022/11/17 09:39:18;;;;;;;9.13;6.17;;;6.80;99.90;;;;;;5035699;28;20421;-52
2022/11/17 09:41:47;;;;;;;9.80;5.40;;;6.70;99.90;;;;;;5023028;28;20467;-53
2022/11/17 09:44:25;;;;;;;7.60;5.10;;;6.60;99.90;;;;;;5035352;28;20453;-53
2022/11/17 09:47:01;;;;;;;13.83;7.90;;;6.70;99.90;;;;;;5035386;28;20437;-46
2022/11/17 09:49:43;;;;;;;10.70;6.67;;;6.60;99.90;;;;;;5035837;28;20451;-45
2022/11/17 09:52:17;;;;;;;12.77;7.70;;;6.70;99.90;;;;;;5035683;28;20433;-51
2022/11/17 09:54:50;;;;;;;12.00;6.50;;;6.70;99.90;;;;;;5035821;28;20445;-42
2022/11/17 09:57:25;;;;;;;13.90;7.43;;;6.70;99.90;;;;;;5035046;28;20480;-45
2022/11/17 10:00:04;;;;;;;11.07;5.97;;;6.70;99.90;;;;;;5035531;28;20468;-47
2022/11/17 10:02:33;;;;;;;12.03;6.50;;;6.80;99.90;;;;;;5034592;28;20476;-47
2022/11/17 10:05:00;;;;;;;12.00;5.03;;;6.70;99.90;;;;;;5034999;28;20472;-57
2022/11/17 10:07:29;;;;;;;11.27;6.23;;;6.70;99.90;;;;;;5035484;28;20441;-47
2022/11/17 10:09:56;;;;;;;9.20;6.20;;;6.70;99.90;;;;;;5035483;28;20484;-48
2022/11/17 10:12:30;;;;;;;10.53;6.40;;;6.70;99.90;;;;;;5035190;28;20433;-46
2022/11/17 10:14:58;;;;;;;11.17;6.47;;;6.70;99.90;;;;;;5035415;28;20469;-48
2022/11/17 10:17:25;;;;;;;11.33;7.27;;;6.80;99.90;;;;;;5034841;28;20536;-49
2022/11/17 10:19:57;;;;;;;11.50;5.87;;;6.80;99.90;;;;;;5034886;28;20449;-47
2022/11/17 10:22:34;;;;;;;9.43;6.00;;;6.80;99.90;;;;;;5034498;28;20437;-51
2022/11/17 10:25:01;;;;;;;10.10;6.93;;;6.80;99.90;;;;;;5032283;28;20429;-55
2022/11/17 10:27:29;;;;;;;14.23;7.73;;;6.80;99.90;;;;;;5025378;28;20468;-51
2022/11/17 10:30:01;;;;;;;9.57;5.77;;;6.80;99.90;;;;;;5035274;28;20463;-52
2022/11/17 10:32:30;;;;;;;13.63;6.93;;;6.90;99.90;;;;;;5035014;28;20468;-48
2022/11/17 10:35:15;;;;;;;9.47;5.20;;;6.90;99.90;;;;;;5035423;28;20440;-55
2022/11/17 10:37:51;;;;;;;11.97;8.13;;;6.90;99.90;;;;;;5035373;28;20520;-53
2022/11/17 10:40:22;;;;;;;10.57;6.17;;;6.90;99.90;;;;;;5035145;28;20441;-50
2022/11/17 10:43:16;;;;;;;15.13;5.63;;;6.90;99.90;;;;;;5034691;28;20509;-50
2022/11/17 10:45:44;;;;;;;9.30;6.63;;;6.90;99.90;;;;;;5015329;28;20516;-45
2022/11/17 10:48:25;;;;;;;11.87;5.73;;;6.90;99.90;;;;;;5003483;28;20453;-45
2022/11/17 10:50:56;;;;;;;11.13;6.00;;;6.90;99.90;;;;;;5015513;28;20465;-45
2022/11/17 10:53:32;;;;;;;10.30;5.97;;;6.80;99.90;;;;;;5015624;28;20429;-46
2022/11/17 10:56:04;;;;;;;9.70;6.23;;;6.80;99.90;;;;;;5026306;28;20507;-46
2022/11/17 10:58:35;;;;;;;12.37;5.40;;;6.90;99.90;;;;;;5035053;28;20433;-44
2022/11/17 11:01:04;;;;;;;8.97;5.50;;;6.90;99.90;;;;;;5034857;28;20475;-46
2022/11/17 11:03:33;;;;;;;12.03;5.97;;;6.90;99.90;;;;;;5031069;28;20465;-48
2022/11/17 11:06:05;;;;;;;15.00;6.30;;;6.90;99.90;;;;;;5034751;28;20421;-48
2022/11/17 11:08:50;;;;;;;18.30;5.63;;;6.90;99.90;;;;;;5034293;28;20437;-49
2022/11/17 11:11:29;;;;;;;10.23;6.30;;;6.90;99.90;;;;;;5034687;28;20517;-46
2022/11/17 11:13:59;;;;;;;9.90;5.80;;;6.80;99.90;;;;;;5034547;28;20449;-49
2022/11/17 11:16:29;;;;;;;10.70;5.60;;;6.90;99.90;;;;;;5033937;28;20503;-45
2022/11/17 11:18:58;;;;;;;8.40;5.57;;;6.90;99.90;;;;;;5035915;28;20468;-50
2022/11/17 11:21:38;;;;;;;8.90;6.00;;;6.80;99.90;;;;;;5035589;28;20425;-53
2022/11/17 11:24:18;;;;;;;7.00;5.57;;;6.90;99.90;;;;;;5035714;28;20417;-50
2022/11/17 11:26:56;;;;;;;9.57;6.23;;;6.90;99.90;;;;;;5035814;28;20451;-48
2022/11/17 11:29:30;;;;;;;12.20;5.97;;;6.90;99.90;;;;;;5036367;28;20521;-52
2022/11/17 11:32:15;;;;;;;9.90;6.20;;;7.00;99.90;;;;;;5036378;28;20421;-44
2022/11/17 11:35:02;;;;;;;10.50;5.47;;;7.00;99.90;;;;;;5037194;28;20472;-51
2022/11/17 11:37:40;;;;;;;9.50;6.37;;;6.90;99.90;;;;;;5039731;28;20465;-49
2022/11/17 11:40:15;;;;;;;8.13;4.80;;;7.00;99.90;;;;;;5038689;28;20473;-44
2022/11/17 11:42:52;;;;;;;10.30;7.17;;;7.00;99.90;;;;;;5028589;28;20429;-51
2022/11/17 11:45:29;;;;;;;9.73;6.30;;;7.00;99.90;;;;;;5038677;28;20425;-50
2022/11/17 11:48:14;;;;;;;10.60;5.97;;;6.90;99.90;;;;;;5039114;28;20421;-56
2022/11/17 11:50:50;;;;;;;10.03;5.30;;;6.90;99.90;;;;;;5039312;28;20413;-49
2022/11/17 11:53:26;;;;;;;8.83;6.00;;;6.90;99.90;;;;;;5028321;28;20468;-47
2022/11/17 11:56:04;;;;;;;8.30;6.03;;;6.90;99.90;;;;;;5038634;28;20440;-49
2022/11/17 11:58:31;;;;;;;12.70;6.03;;;7.00;99.90;;;;;;5038452;28;20425;-48
2022/11/17 12:01:04;;;;;;;12.53;6.57;;;7.00;99.90;;;;;;5038807;28;20433;-47
2022/11/17 12:03:35;;;;;;;9.33;6.37;;;7.10;99.90;;;;;;5038562;28;20441;-51
2022/11/17 12:09:06;;;;;;;9.73;6.10;;;7.00;99.90;;;;;;5038261;28;20416;-47
2022/11/17 12:14:19;;;;;;;10.83;5.50;;;7.00;99.90;;;;;;5029062;28;20409;-50
2022/11/17 12:16:48;;;;;;;8.33;5.80;;;7.00;99.90;;;;;;5038437;28;20488;-49
2022/11/17 12:19:47;;;;;;;11.37;6.67;;;6.90;99.90;;;;;;5038475;28;20422;-53
2022/11/17 12:22:36;;;;;;;10.00;5.80;;;6.90;99.90;;;;;;5037903;28;20430;-48
2022/11/17 12:25:15;;;;;;;10.03;5.50;;;7.00;99.90;;;;;;5038289;28;20465;-46
2022/11/17 12:27:45;;;;;;;6.93;5.30;;;7.00;99.90;;;;;;5038102;28;20433;-45
2022/11/17 12:30:49;;;;;;;8.40;4.43;;;7.10;99.90;;;;;;5037533;28;20488;-47
2022/11/17 12:33:16;;;;;;;10.43;6.50;;;7.10;99.90;;;;;;5037839;28;20441;-52
2022/11/17 12:35:43;;;;;;;7.33;5.40;;;7.10;99.90;;;;;;5037749;28;20468;-50
2022/11/17 12:38:41;;;;;;;11.00;5.50;;;7.10;99.90;;;;;;5037699;28;20464;-44
2022/11/17 12:41:09;;;;;;;7.07;4.60;;;7.10;99.90;;;;;;5033665;28;20452;-48
2022/11/17 12:43:36;;;;;;;13.23;5.10;;;7.10;99.90;;;;;;5037778;28;20448;-49
2022/11/17 12:46:25;;;;;;;11.00;6.67;;;7.10;99.90;;;;;;5037006;28;20451;-47
2022/11/17 12:49:03;;;;;;;8.80;5.20;;;7.10;99.90;;;;;;5037555;28;20467;-49
2022/11/17 12:51:43;;;;;;;11.30;6.60;;;7.00;99.90;;;;;;5037308;28;20429;-46
2022/11/17 12:54:20;;;;;;;12.10;6.43;;;7.00;99.90;;;;;;5037100;28;20471;-48
2022/11/17 12:57:05;;;;;;;10.47;6.20;;;7.00;99.90;;;;;;5037192;28;20496;-50
2022/11/17 13:00:09;;;;;;;9.07;4.83;;;7.60;99.90;;;;;;5036624;28;20445;-45
2022/11/17 13:02:57;;;;;;;8.50;6.07;;;8.00;99.90;;;;;;5037359;28;20429;-45
2022/11/17 13:05:29;;;;;;;9.30;5.23;;;7.90;99.90;;;;;;5027644;28;20429;-44
2022/11/17 13:08:21;;;;;;;8.60;6.07;;;7.80;99.90;;;;;;5036960;28;20450;-46
2022/11/17 13:10:48;;;;;;;9.03;5.50;;;7.70;99.90;;;;;;5036652;28;20490;-47
2022/11/17 13:13:19;;;;;;;8.97;6.50;;;7.60;99.90;;;;;;5036558;28;20548;-45
2022/11/17 13:15:49;;;;;;;8.73;5.20;;;7.50;99.90;;;;;;5036476;28;20426;-46
2022/11/17 13:18:27;;;;;;;7.40;4.63;;;7.50;99.90;;;;;;5037289;28;20469;-53
2022/11/17 13:20:54;;;;;;;11.90;5.93;;;7.40;99.90;;;;;;5036658;28;20472;-47
2022/11/17 13:23:29;;;;;;;11.33;4.70;;;7.30;99.90;;;;;;5036927;28;20445;-49
2022/11/17 13:26:10;;;;;;;10.60;7.20;;;7.30;99.90;;;;;;5036607;28;20483;-48
2022/11/17 13:28:41;;;;;;;12.23;7.73;;;7.30;99.90;;;;;;5036420;28;20536;-44
2022/11/17 13:31:16;;;;;;;9.93;6.40;;;7.20;99.90;;;;;;5036705;28;20449;-51
2022/11/17 13:33:43;;;;;;;6.90;6.10;;;7.20;99.90;;;;;;5036482;28;20468;-44
2022/11/17 13:36:18;;;;;;;8.20;5.23;;;7.20;99.90;;;;;;5036615;28;20441;-49
2022/11/17 13:38:49;;;;;;;9.57;5.10;;;7.10;99.90;;;;;;5036465;28;20420;-48
2022/11/17 13:41:18;;;;;;;9.80;6.93;;;7.10;99.90;;;;;;5026067;28;20417;-50
2022/11/17 13:43:49;;;;;;;11.60;5.60;;;7.10;99.90;;;;;;5036650;28;20440;-47
2022/11/17 13:46:16;;;;;;;10.00;6.40;;;7.10;99.90;;;;;;5036442;28;20475;-48
2022/11/17 13:48:45;;;;;;;8.00;4.77;;;7.00;99.90;;;;;;5036332;28;20453;-51